createdAt,value
2022-09-03T00:00:10.947Z,12.10
2022-09-03T00:01:51.885Z,12.00
2022-09-03T00:03:33.145Z,12.00
2022-09-03T00:05:14.579Z,12.00
2022-09-03T00:06:57.110Z,12.00
2022-09-03T00:08:40.734Z,12.00
2022-09-03T00:10:23.706Z,12.00
2022-09-03T00:12:10.856Z,12.00
2022-09-03T00:13:52.300Z,12.00
2022-09-03T00:15:26.152Z,12.00
2022-09-03T00:17:06.771Z,11.90
2022-09-03T00:18:49.814Z,11.90
2022-09-03T00:20:32.435Z,11.90
2022-09-03T00:22:14.771Z,11.90
2022-09-03T00:23:51.529Z,11.90
2022-09-03T00:25:35.004Z,11.90
2022-09-03T00:27:19.678Z,11.90
2022-09-03T00:28:59.967Z,11.90
2022-09-03T00:30:35.937Z,11.90
2022-09-03T00:32:19.554Z,11.80
2022-09-03T00:33:59.251Z,11.80
2022-09-03T00:35:42.000Z,11.80
2022-09-03T00:37:15.982Z,11.80
2022-09-03T00:38:49.600Z,11.80
2022-09-03T00:40:44.731Z,11.80
2022-09-03T00:42:41.028Z,11.80
2022-09-03T00:44:45.350Z,11.70
2022-09-03T00:46:28.038Z,11.80
2022-09-03T00:48:17.594Z,11.70
2022-09-03T00:50:05.557Z,11.70
2022-09-03T00:51:51.873Z,11.70
2022-09-03T00:53:36.304Z,11.60
2022-09-03T00:55:24.976Z,11.60
2022-09-03T00:57:17.363Z,11.60
2022-09-03T00:59:16.463Z,11.60
2022-09-03T01:00:55.808Z,11.60
2022-09-03T01:02:53.077Z,11.60
2022-09-03T01:04:49.507Z,11.60
2022-09-03T01:06:37.702Z,11.60
2022-09-03T01:08:37.019Z,11.50
2022-09-03T01:10:27.521Z,11.50
2022-09-03T01:12:15.573Z,11.50
2022-09-03T01:14:06.991Z,11.50
2022-09-03T01:15:59.404Z,11.50
2022-09-03T01:17:51.045Z,11.50
2022-09-03T01:20:09.243Z,11.50
2022-09-03T01:22:21.082Z,11.40
2022-09-03T01:24:29.851Z,11.40
2022-09-03T01:26:24.911Z,11.40
2022-09-03T01:28:20.088Z,11.40
2022-09-03T01:30:06.205Z,11.40
2022-09-03T01:31:51.760Z,11.40
2022-09-03T01:33:35.015Z,11.30
2022-09-03T01:35:20.629Z,11.30
2022-09-03T01:37:08.963Z,11.30
2022-09-03T01:38:52.355Z,11.30
2022-09-03T01:40:39.475Z,11.30
2022-09-03T01:42:28.487Z,11.30
2022-09-03T01:44:16.710Z,11.30
2022-09-03T01:46:00.526Z,11.20
2022-09-03T01:47:51.427Z,11.30
2022-09-03T01:49:35.354Z,11.20
2022-09-03T01:51:20.936Z,11.20
2022-09-03T01:53:03.107Z,11.20
2022-09-03T01:55:07.084Z,11.20
2022-09-03T01:57:19.133Z,11.20
2022-09-03T01:59:21.066Z,11.20
2022-09-03T02:01:04.078Z,11.20
2022-09-03T02:02:39.061Z,11.10
2022-09-03T02:04:24.392Z,11.20
2022-09-03T02:05:58.673Z,11.10
2022-09-03T02:07:34.871Z,11.10
2022-09-03T02:09:08.224Z,11.10
2022-09-03T02:10:46.503Z,11.10
2022-09-03T02:12:21.784Z,11.10
2022-09-03T02:13:59.830Z,11.00
2022-09-03T02:15:37.586Z,11.10
2022-09-03T02:17:12.563Z,11.00
2022-09-03T02:18:52.043Z,11.10
2022-09-03T02:20:29.708Z,11.10
2022-09-03T02:22:03.187Z,11.00
2022-09-03T02:23:36.959Z,11.00
2022-09-03T02:25:10.989Z,11.00
2022-09-03T02:26:44.717Z,11.00
2022-09-03T02:28:18.611Z,11.00
2022-09-03T02:29:51.508Z,11.00
2022-09-03T02:31:27.619Z,11.10
2022-09-03T02:33:01.923Z,11.00
2022-09-03T02:34:35.418Z,10.90
2022-09-03T02:36:12.704Z,11.00
2022-09-03T02:37:46.535Z,10.90
2022-09-03T02:39:19.930Z,11.00
2022-09-03T02:40:54.330Z,10.90
2022-09-03T02:42:27.974Z,10.90
2022-09-03T02:44:08.342Z,10.90
2022-09-03T02:45:48.691Z,10.90
2022-09-03T02:47:30.700Z,10.90
2022-09-03T02:49:04.139Z,10.90
2022-09-03T02:50:42.636Z,10.90
2022-09-03T02:52:17.084Z,10.90
2022-09-03T02:53:49.731Z,10.90
2022-09-03T02:55:24.254Z,10.90
2022-09-03T02:56:57.664Z,10.80
2022-09-03T02:58:32.501Z,10.80
2022-09-03T03:00:43.559Z,10.80
2022-09-03T03:02:16.943Z,10.80
2022-09-03T03:03:52.186Z,10.80
2022-09-03T03:05:36.543Z,10.80
2022-09-03T03:07:10.287Z,10.80
2022-09-03T03:08:44.304Z,10.80
2022-09-03T03:10:17.938Z,10.80
2022-09-03T03:11:51.243Z,10.70
2022-09-03T03:13:24.606Z,10.70
2022-09-03T03:14:58.203Z,10.70
2022-09-03T03:16:32.007Z,10.70
2022-09-03T03:18:05.951Z,10.70
2022-09-03T03:19:41.195Z,10.70
2022-09-03T03:21:18.763Z,10.70
2022-09-03T03:22:51.765Z,10.60
2022-09-03T03:24:25.232Z,10.60
2022-09-03T03:26:03.426Z,10.60
2022-09-03T03:27:42.482Z,10.60
2022-09-03T03:29:18.453Z,10.60
2022-09-03T03:30:52.833Z,10.60
2022-09-03T03:32:26.359Z,10.60
2022-09-03T03:34:02.394Z,10.60
2022-09-03T03:35:38.089Z,10.50
2022-09-03T03:37:11.628Z,10.60
2022-09-03T03:38:46.499Z,10.50
2022-09-03T03:40:20.469Z,10.50
2022-09-03T03:41:54.032Z,10.50
2022-09-03T03:43:27.383Z,10.50
2022-09-03T03:45:02.477Z,10.50
2022-09-03T03:46:39.177Z,10.50
2022-09-03T03:48:12.853Z,10.50
2022-09-03T03:49:46.230Z,10.40
2022-09-03T03:51:21.486Z,10.40
2022-09-03T03:52:54.871Z,10.40
2022-09-03T03:54:28.160Z,10.40
2022-09-03T03:56:03.926Z,10.40
2022-09-03T03:57:37.611Z,10.40
2022-09-03T03:59:11.178Z,10.40
2022-09-03T04:00:45.159Z,10.30
2022-09-03T04:02:19.939Z,10.30
2022-09-03T04:03:56.587Z,10.30
2022-09-03T04:05:33.679Z,10.30
2022-09-03T04:07:09.749Z,10.30
2022-09-03T04:08:46.736Z,10.30
2022-09-03T04:10:20.203Z,10.30
2022-09-03T04:11:53.584Z,10.30
2022-09-03T04:13:31.559Z,10.20
2022-09-03T04:15:06.763Z,10.20
2022-09-03T04:16:40.234Z,10.20
2022-09-03T04:18:14.383Z,10.20
2022-09-03T04:19:48.691Z,10.20
2022-09-03T04:21:25.418Z,10.20
2022-09-03T04:23:05.338Z,10.20
2022-09-03T04:24:38.999Z,10.20
2022-09-03T04:26:15.897Z,10.10
2022-09-03T04:27:49.615Z,10.20
2022-09-03T04:29:23.103Z,10.20
2022-09-03T04:31:01.001Z,10.10
2022-09-03T04:32:52.458Z,10.10
2022-09-03T04:34:26.383Z,10.10
2022-09-03T04:36:11.967Z,10.10
2022-09-03T04:37:44.389Z,10.10
2022-09-03T04:39:19.085Z,10.10
2022-09-03T04:40:53.995Z,10.00
2022-09-03T04:42:27.258Z,10.00
2022-09-03T04:44:01.411Z,10.00
2022-09-03T04:45:33.845Z,10.00
2022-09-03T04:47:07.537Z,10.00
2022-09-03T04:48:41.350Z,10.00
2022-09-03T04:50:14.983Z,10.00
2022-09-03T04:51:48.431Z,10.00
2022-09-03T04:53:22.637Z,10.00
2022-09-03T04:54:57.560Z,10.00
2022-09-03T04:56:34.418Z,10.00
2022-09-03T04:58:08.757Z,10.00
2022-09-03T04:59:42.740Z,10.00
2022-09-03T05:01:20.436Z,10.00
2022-09-03T05:02:54.111Z,10.00
2022-09-03T05:04:27.844Z,10.00
2022-09-03T05:06:01.827Z,9.90
2022-09-03T05:07:38.783Z,9.90
2022-09-03T05:09:12.410Z,9.90
2022-09-03T05:10:47.081Z,9.90
2022-09-03T05:12:23.067Z,9.90
2022-09-03T05:13:59.610Z,9.90
2022-09-03T05:15:34.749Z,9.90
2022-09-03T05:17:08.119Z,10.00
2022-09-03T05:18:42.484Z,9.90
2022-09-03T05:20:15.243Z,9.90
2022-09-03T05:21:49.295Z,9.90
2022-09-03T05:23:22.372Z,10.00
2022-09-03T05:24:56.249Z,9.90
2022-09-03T05:26:34.156Z,9.90
2022-09-03T05:28:07.916Z,10.00
2022-09-03T05:29:41.819Z,9.90
2022-09-03T05:31:17.956Z,9.90
2022-09-03T05:32:52.125Z,10.00
2022-09-03T05:34:24.530Z,9.90
2022-09-03T05:36:03.622Z,9.90
2022-09-03T05:37:37.470Z,9.90
2022-09-03T05:39:11.311Z,9.90
2022-09-03T05:40:45.160Z,9.90
2022-09-03T05:42:20.067Z,9.90
2022-09-03T05:43:56.653Z,9.90
2022-09-03T05:45:32.373Z,9.90
2022-09-03T05:47:06.361Z,10.00
2022-09-03T05:48:40.665Z,10.00
2022-09-03T05:50:14.056Z,10.00
2022-09-03T05:51:47.385Z,10.00
2022-09-03T05:53:20.898Z,10.00
2022-09-03T05:54:54.380Z,10.00
2022-09-03T05:56:29.890Z,10.00
2022-09-03T05:58:04.688Z,10.00
2022-09-03T05:59:38.131Z,10.00
2022-09-03T06:01:14.088Z,10.00
2022-09-03T06:02:52.745Z,10.00
2022-09-03T06:04:26.850Z,10.00
2022-09-03T06:06:00.966Z,10.00
2022-09-03T06:07:34.910Z,10.00
2022-09-03T06:09:11.737Z,10.10
2022-09-03T06:10:45.181Z,10.10
2022-09-03T06:12:19.071Z,10.10
2022-09-03T06:13:54.250Z,10.20
2022-09-03T06:15:28.287Z,10.10
2022-09-03T06:17:01.646Z,10.10
2022-09-03T06:18:34.581Z,10.10
2022-09-03T06:20:10.094Z,10.20
2022-09-03T06:21:45.787Z,10.20
2022-09-03T06:23:20.159Z,10.20
2022-09-03T06:24:54.323Z,10.20
2022-09-03T06:26:29.695Z,10.30
2022-09-03T06:28:03.839Z,10.30
2022-09-03T06:29:38.891Z,10.40
2022-09-03T06:31:15.594Z,10.40
2022-09-03T06:32:52.119Z,10.40
2022-09-03T06:34:25.547Z,10.50
2022-09-03T06:35:59.445Z,10.50
2022-09-03T06:37:32.837Z,10.60
2022-09-03T06:39:06.504Z,10.60
2022-09-03T06:40:40.155Z,10.70
2022-09-03T06:42:13.480Z,10.70
2022-09-03T06:43:51.319Z,10.70
2022-09-03T06:45:26.338Z,10.80
2022-09-03T06:47:01.446Z,10.80
2022-09-03T06:48:37.267Z,10.90
2022-09-03T06:50:11.491Z,10.90
2022-09-03T06:51:46.248Z,11.00
2022-09-03T06:53:19.188Z,11.00
2022-09-03T06:54:52.955Z,11.10
2022-09-03T06:56:28.391Z,11.20
2022-09-03T06:58:01.811Z,11.20
2022-09-03T06:59:36.180Z,11.30
2022-09-03T07:01:14.682Z,11.40
2022-09-03T07:02:48.776Z,11.40
2022-09-03T07:04:24.914Z,11.50
2022-09-03T07:06:02.923Z,11.60
2022-09-03T07:07:37.421Z,11.70
2022-09-03T07:09:15.311Z,11.80
2022-09-03T07:10:49.004Z,11.80
2022-09-03T07:12:22.541Z,11.90
2022-09-03T07:13:57.150Z,12.00
2022-09-03T07:15:30.975Z,12.10
2022-09-03T07:17:06.407Z,12.20
2022-09-03T07:18:41.540Z,12.30
2022-09-03T07:20:15.034Z,12.40
2022-09-03T07:21:50.757Z,12.50
2022-09-03T07:23:23.472Z,12.60
2022-09-03T07:24:57.130Z,12.70
2022-09-03T07:26:34.314Z,12.80
2022-09-03T07:28:08.203Z,12.90
2022-09-03T07:29:42.075Z,13.00
2022-09-03T07:31:19.932Z,13.10
2022-09-03T07:32:54.910Z,13.20
2022-09-03T07:34:30.434Z,13.30
2022-09-03T07:36:06.188Z,13.40
2022-09-03T07:37:43.857Z,13.50
2022-09-03T07:39:19.484Z,13.60
2022-09-03T07:41:00.227Z,13.70
2022-09-03T07:42:38.360Z,13.80
2022-09-03T07:44:13.095Z,14.00
2022-09-03T07:45:51.938Z,14.10
2022-09-03T07:47:27.127Z,14.20
2022-09-03T07:49:03.396Z,14.40
2022-09-03T07:50:39.419Z,14.50
2022-09-03T07:52:13.110Z,14.70
2022-09-03T07:53:56.051Z,14.90
2022-09-03T07:55:29.575Z,15.00
2022-09-03T07:57:03.152Z,15.20
2022-09-03T07:58:38.328Z,15.40
2022-09-03T08:00:14.499Z,15.50
2022-09-03T08:01:48.359Z,15.70
2022-09-03T08:03:22.692Z,15.90
2022-09-03T08:04:57.651Z,16.00
2022-09-03T08:06:32.782Z,16.20
2022-09-03T08:08:10.951Z,16.30
2022-09-03T08:09:49.771Z,16.50
2022-09-03T08:11:22.391Z,16.70
2022-09-03T08:12:55.958Z,16.80
2022-09-03T08:14:31.624Z,16.90
2022-09-03T08:16:05.757Z,17.00
2022-09-03T08:17:39.827Z,17.20
2022-09-03T08:19:18.141Z,17.40
2022-09-03T08:20:52.206Z,17.50
2022-09-03T08:22:26.663Z,17.60
2022-09-03T08:24:02.716Z,17.70
2022-09-03T08:25:36.212Z,17.90
2022-09-03T08:27:10.432Z,18.00
2022-09-03T08:28:45.531Z,18.10
2022-09-03T08:30:19.725Z,18.20
2022-09-03T08:31:55.345Z,18.40
2022-09-03T08:33:42.472Z,18.50
2022-09-03T08:35:16.863Z,18.60
2022-09-03T08:36:53.124Z,18.70
2022-09-03T08:38:25.965Z,18.80
2022-09-03T08:40:00.253Z,19.00
2022-09-03T08:42:12.566Z,19.00
2022-09-03T08:44:26.035Z,19.10
2022-09-03T08:46:00.057Z,19.30
2022-09-03T08:47:39.954Z,19.40
2022-09-03T08:49:17.927Z,19.40
2022-09-03T08:51:00.088Z,19.50
2022-09-03T08:52:43.845Z,19.60
2022-09-03T08:54:25.126Z,19.70
2022-09-03T08:56:06.418Z,19.70
2022-09-03T08:57:48.088Z,19.70
2022-09-03T08:59:22.327Z,19.80
2022-09-03T09:01:17.894Z,19.80
2022-09-03T09:03:17.283Z,19.90
2022-09-03T09:05:03.700Z,20.00
2022-09-03T09:06:54.193Z,20.10
2022-09-03T09:08:44.444Z,20.20
2022-09-03T09:10:29.309Z,20.20
2022-09-03T09:12:22.103Z,20.30
2022-09-03T09:14:04.988Z,20.40
2022-09-03T09:15:52.109Z,20.50
2022-09-03T09:17:52.326Z,20.60
2022-09-03T09:19:44.183Z,20.70
2022-09-03T09:21:27.637Z,20.90
2022-09-03T09:23:06.660Z,20.90
2022-09-03T09:24:46.271Z,21.10
2022-09-03T09:26:23.206Z,21.10
2022-09-03T09:28:03.949Z,21.20
2022-09-03T09:29:38.851Z,21.30
2022-09-03T09:31:18.612Z,21.30
2022-09-03T09:32:52.065Z,21.50
2022-09-03T09:34:26.258Z,21.50
2022-09-03T09:36:02.998Z,21.70
2022-09-03T09:37:48.486Z,21.80
2022-09-03T09:39:23.440Z,21.80
2022-09-03T09:41:10.663Z,21.90
2022-09-03T09:42:44.093Z,22.00
2022-09-03T09:44:23.063Z,22.10
2022-09-03T09:46:09.431Z,22.10
2022-09-03T09:47:43.543Z,22.20
2022-09-03T09:49:35.183Z,22.40
2022-09-03T09:51:14.130Z,22.40
2022-09-03T09:52:48.159Z,22.50
2022-09-03T09:54:28.141Z,22.60
2022-09-03T09:56:03.938Z,22.70
2022-09-03T09:57:39.646Z,22.80
2022-09-03T09:59:16.028Z,22.90
2022-09-03T10:01:03.483Z,23.00
2022-09-03T10:02:40.237Z,23.00
2022-09-03T10:04:24.485Z,23.10
2022-09-03T10:06:28.206Z,23.20
2022-09-03T10:08:05.153Z,23.20
2022-09-03T10:09:38.722Z,23.30
2022-09-03T10:11:14.244Z,23.40
2022-09-03T10:12:59.478Z,23.40
2022-09-03T10:14:43.537Z,23.50
2022-09-03T10:16:28.802Z,23.50
2022-09-03T10:18:12.323Z,23.60
2022-09-03T10:20:18.886Z,23.70
2022-09-03T10:22:03.475Z,23.70
2022-09-03T10:23:51.552Z,23.80
2022-09-03T10:25:30.341Z,23.90
2022-09-03T10:27:05.374Z,23.90
2022-09-03T10:28:42.280Z,24.00
2022-09-03T10:30:16.490Z,24.00
2022-09-03T10:32:23.670Z,24.00
2022-09-03T10:34:05.799Z,24.10
2022-09-03T10:35:47.178Z,24.20
2022-09-03T10:37:30.172Z,24.20
2022-09-03T10:39:16.039Z,24.30
2022-09-03T10:41:04.234Z,24.40
2022-09-03T10:42:47.711Z,24.50
2022-09-03T10:44:49.379Z,24.50
2022-09-03T10:46:30.313Z,24.50
2022-09-03T10:48:29.393Z,24.60
2022-09-03T10:50:17.047Z,24.60
2022-09-03T10:52:03.268Z,24.60
2022-09-03T10:54:28.950Z,24.60
2022-09-03T10:56:10.020Z,24.60
2022-09-03T10:57:54.405Z,24.50
2022-09-03T10:59:43.311Z,24.50
2022-09-03T11:01:34.013Z,24.50
2022-09-03T11:03:45.563Z,24.40
2022-09-03T11:05:24.942Z,24.40
2022-09-03T11:07:05.239Z,24.40
2022-09-03T11:08:45.804Z,24.40
2022-09-03T11:10:24.974Z,24.30
2022-09-03T11:12:12.997Z,24.40
2022-09-03T11:13:54.005Z,24.30
2022-09-03T11:15:33.722Z,24.40
2022-09-03T11:17:14.948Z,24.30
2022-09-03T11:18:52.895Z,24.30
2022-09-03T11:20:27.975Z,24.30
2022-09-03T11:22:02.733Z,24.30
2022-09-03T11:23:44.182Z,24.30
2022-09-03T11:25:23.766Z,24.20
2022-09-03T11:27:12.243Z,24.20
2022-09-03T11:28:58.284Z,24.20
2022-09-03T11:30:49.636Z,24.10
2022-09-03T11:32:41.687Z,24.10
2022-09-03T11:34:31.924Z,24.10
2022-09-03T11:36:08.755Z,24.10
2022-09-03T11:37:55.767Z,24.10
2022-09-03T11:39:42.933Z,24.00
2022-09-03T11:41:26.941Z,24.00
2022-09-03T11:43:13.687Z,24.00
2022-09-03T11:44:52.637Z,24.00
2022-09-03T11:46:31.933Z,24.00
2022-09-03T11:48:31.521Z,24.00
2022-09-03T11:50:21.260Z,24.10
2022-09-03T11:52:03.120Z,24.20
2022-09-03T11:53:36.950Z,24.20
2022-09-03T11:55:10.259Z,24.20
2022-09-03T11:56:44.199Z,24.30
2022-09-03T11:58:33.148Z,24.40
2022-09-03T12:00:14.150Z,24.40
2022-09-03T12:01:53.999Z,24.50
2022-09-03T12:03:38.891Z,24.60
2022-09-03T12:05:31.968Z,24.70
2022-09-03T12:07:44.055Z,24.70
2022-09-03T12:09:53.115Z,24.80
2022-09-03T12:11:45.729Z,24.90
2022-09-03T12:13:49.242Z,24.90
2022-09-03T12:15:52.910Z,25.00
2022-09-03T12:17:35.702Z,25.10
2022-09-03T12:19:22.684Z,25.10
2022-09-03T12:21:06.452Z,25.10
2022-09-03T12:22:41.222Z,25.00
2022-09-03T12:24:15.293Z,25.00
2022-09-03T12:25:49.259Z,25.00
2022-09-03T12:27:25.409Z,25.00
2022-09-03T12:29:01.310Z,25.00
2022-09-03T12:30:38.653Z,24.90
2022-09-03T12:32:15.149Z,24.90
2022-09-03T12:33:51.347Z,24.90
2022-09-03T12:40:04.543Z,24.80
2022-09-03T12:41:28.232Z,24.80
2022-09-03T12:45:13.103Z,24.70
2022-09-03T12:46:48.288Z,24.60
2022-09-03T12:48:23.770Z,24.60
2022-09-03T12:50:07.308Z,24.50
2022-09-03T12:51:51.407Z,24.50
2022-09-03T12:53:29.978Z,24.40
2022-09-03T12:55:21.002Z,24.30
2022-09-03T12:56:59.612Z,24.20
2022-09-03T12:58:38.342Z,24.10
2022-09-03T13:00:18.413Z,24.00
2022-09-03T13:01:59.405Z,23.90
2022-09-03T13:03:45.563Z,23.80
2022-09-03T13:05:23.479Z,23.80
2022-09-03T13:07:05.121Z,23.70
2022-09-03T13:08:48.832Z,23.70
2022-09-03T13:10:29.831Z,23.70
2022-09-03T13:12:05.990Z,23.70
2022-09-03T13:13:40.700Z,23.70
2022-09-03T13:15:23.475Z,23.70
2022-09-03T13:17:33.133Z,23.70
2022-09-03T13:19:19.278Z,23.70
2022-09-03T13:21:13.179Z,23.70
2022-09-03T13:23:03.449Z,23.70
2022-09-03T13:25:10.911Z,23.70
2022-09-03T13:26:59.390Z,23.70
2022-09-03T13:28:58.379Z,23.80
2022-09-03T13:30:41.336Z,23.80
2022-09-03T13:32:31.636Z,23.80
2022-09-03T13:34:18.411Z,23.80
2022-09-03T13:36:02.275Z,23.90
2022-09-03T13:37:43.406Z,23.80
2022-09-03T13:39:28.456Z,23.80
2022-09-03T13:41:20.207Z,23.80
2022-09-03T13:43:02.663Z,23.80
2022-09-03T13:44:45.600Z,23.80
2022-09-03T13:46:29.117Z,23.80
2022-09-03T13:48:33.468Z,23.80
2022-09-03T13:50:23.788Z,23.90
2022-09-03T13:52:04.618Z,23.90
2022-09-03T13:54:04.410Z,23.90
2022-09-03T13:55:48.142Z,23.90
2022-09-03T13:57:36.169Z,24.00
2022-09-03T13:59:20.077Z,24.10
2022-09-03T14:01:11.577Z,24.10
2022-09-03T14:02:56.933Z,24.20
2022-09-03T14:04:50.256Z,24.20
2022-09-03T14:06:42.034Z,24.30
2022-09-03T14:08:28.951Z,24.40
2022-09-03T14:10:20.022Z,24.50
2022-09-03T14:12:06.302Z,24.60
2022-09-03T14:13:55.935Z,24.60
2022-09-03T14:15:38.788Z,24.70
2022-09-03T14:17:24.627Z,24.80
2022-09-03T14:19:06.448Z,24.90
2022-09-03T14:20:54.976Z,24.90
2022-09-03T14:22:47.263Z,25.00
2022-09-03T14:24:30.595Z,25.00
2022-09-03T14:26:08.175Z,25.10
2022-09-03T14:27:41.592Z,25.20
2022-09-03T14:29:18.972Z,25.20
2022-09-03T14:31:02.777Z,25.20
2022-09-03T14:32:53.097Z,25.30
2022-09-03T14:34:44.858Z,25.30
2022-09-03T14:36:31.334Z,25.30
2022-09-03T14:38:42.892Z,25.30
2022-09-03T14:40:20.898Z,25.30
2022-09-03T14:42:38.630Z,25.20
2022-09-03T14:44:50.888Z,25.10
2022-09-03T14:46:47.287Z,25.10
2022-09-03T14:48:48.887Z,25.10
2022-09-03T14:50:45.971Z,25.00
2022-09-03T14:53:06.149Z,25.00
2022-09-03T14:55:22.319Z,24.90
2022-09-03T14:57:18.093Z,24.90
2022-09-03T14:59:25.980Z,24.80
2022-09-03T15:01:05.440Z,24.80
2022-09-03T15:03:23.542Z,24.70
2022-09-03T15:05:15.865Z,24.70
2022-09-03T15:07:09.737Z,24.70
2022-09-03T15:09:23.642Z,24.70
2022-09-03T15:11:02.265Z,24.60
2022-09-03T15:12:43.763Z,24.60
2022-09-03T15:14:27.222Z,24.60
2022-09-03T15:16:20.290Z,24.60
2022-09-03T15:18:16.306Z,24.60
2022-09-03T15:20:06.746Z,24.60
2022-09-03T15:22:09.587Z,24.50
2022-09-03T15:24:04.831Z,24.50
2022-09-03T15:25:54.248Z,24.50
2022-09-03T15:27:55.351Z,24.50
2022-09-03T15:29:47.936Z,24.50
2022-09-03T15:31:28.340Z,24.50
2022-09-03T15:33:17.064Z,24.50
2022-09-03T15:35:06.971Z,24.50
2022-09-03T15:36:48.560Z,24.60
2022-09-03T15:38:36.319Z,24.60
2022-09-03T15:40:28.850Z,24.50
2022-09-03T15:42:11.823Z,24.50
2022-09-03T15:43:51.931Z,24.50
2022-09-03T15:45:39.466Z,24.50
2022-09-03T15:47:35.252Z,24.50
2022-09-03T15:49:45.738Z,24.50
2022-09-03T15:51:27.865Z,24.50
2022-09-03T15:53:07.835Z,24.50
2022-09-03T15:54:54.511Z,24.50
2022-09-03T15:56:38.478Z,24.50
2022-09-03T15:58:25.445Z,24.50
2022-09-03T16:00:04.274Z,24.50
2022-09-03T16:02:04.728Z,24.50
2022-09-03T16:03:59.397Z,24.40
2022-09-03T16:05:43.549Z,24.40
2022-09-03T16:07:27.406Z,24.40
2022-09-03T16:09:18.767Z,24.40
2022-09-03T16:11:06.388Z,24.30
2022-09-03T16:12:53.789Z,24.20
2022-09-03T16:14:35.662Z,24.20
2022-09-03T16:16:14.752Z,24.20
2022-09-03T16:18:02.672Z,24.10
2022-09-03T16:19:47.844Z,24.10
2022-09-03T16:21:31.250Z,24.10
2022-09-03T16:23:13.998Z,24.10
2022-09-03T16:24:56.525Z,24.10
2022-09-03T16:26:36.490Z,24.00
2022-09-03T16:28:17.873Z,24.00
2022-09-03T16:30:03.111Z,24.00
2022-09-03T16:32:00.728Z,23.90
2022-09-03T16:33:48.867Z,23.90
2022-09-03T16:35:41.416Z,23.90
2022-09-03T16:37:29.982Z,23.90
2022-09-03T16:39:15.291Z,23.90
2022-09-03T16:40:57.859Z,23.90
2022-09-03T16:42:42.776Z,23.80
2022-09-03T16:44:28.200Z,23.80
2022-09-03T16:46:21.940Z,23.80
2022-09-03T16:48:26.024Z,23.70
2022-09-03T16:50:19.062Z,23.70
2022-09-03T16:51:58.747Z,23.60
2022-09-03T16:53:59.775Z,23.60
2022-09-03T16:55:54.638Z,23.60
2022-09-03T16:57:54.298Z,23.50
2022-09-03T17:00:00.233Z,23.50
2022-09-03T17:02:02.523Z,23.50
2022-09-03T17:04:25.004Z,23.40
2022-09-03T17:06:35.323Z,23.40
2022-09-03T17:08:25.829Z,23.40
2022-09-03T17:10:10.702Z,23.40
2022-09-03T17:12:02.788Z,23.30
2022-09-03T17:14:00.483Z,23.30
2022-09-03T17:15:43.776Z,23.20
2022-09-03T17:17:36.157Z,23.20
2022-09-03T17:19:22.007Z,23.20
2022-09-03T17:21:13.971Z,23.20
2022-09-03T17:23:09.603Z,23.10
2022-09-03T17:24:54.796Z,23.10
2022-09-03T17:26:39.007Z,23.10
2022-09-03T17:28:31.324Z,23.00
2022-09-03T17:30:10.331Z,23.00
2022-09-03T17:31:55.129Z,23.00
2022-09-03T17:33:55.715Z,22.90
2022-09-03T17:35:42.955Z,22.90
2022-09-03T17:37:34.774Z,22.90
2022-09-03T17:39:49.619Z,22.80
2022-09-03T17:41:37.309Z,22.80
2022-09-03T17:43:24.268Z,22.80
2022-09-03T17:45:16.213Z,22.80
2022-09-03T17:47:08.534Z,22.80
2022-09-03T17:48:54.511Z,22.80
2022-09-03T17:50:36.516Z,22.70
2022-09-03T17:52:27.447Z,22.80
2022-09-03T17:54:09.651Z,22.80
2022-09-03T17:55:54.449Z,22.70
2022-09-03T17:57:33.206Z,22.70
2022-09-03T17:59:17.562Z,22.80
2022-09-03T18:01:02.287Z,22.70
2022-09-03T18:02:43.379Z,22.70
2022-09-03T18:04:35.076Z,22.70
2022-09-03T18:06:20.367Z,22.70
2022-09-03T18:08:03.773Z,22.70
2022-09-03T18:09:47.107Z,22.60
2022-09-03T18:11:35.939Z,22.60
2022-09-03T18:13:25.983Z,22.60
2022-09-03T18:15:10.517Z,22.50
2022-09-03T18:16:53.905Z,22.50
2022-09-03T18:18:30.792Z,22.40
2022-09-03T18:20:27.974Z,22.40
2022-09-03T18:22:24.291Z,22.30
2022-09-03T18:24:26.316Z,22.30
2022-09-03T18:26:24.826Z,22.30
2022-09-03T18:28:24.070Z,22.20
2022-09-03T18:30:24.319Z,22.10
2022-09-03T18:32:15.412Z,22.10
2022-09-03T18:34:06.556Z,22.00
2022-09-03T18:35:57.530Z,22.00
2022-09-03T18:37:48.512Z,21.90
2022-09-03T18:39:47.352Z,21.90
2022-09-03T18:42:05.527Z,21.80
2022-09-03T18:44:08.522Z,21.80
2022-09-03T18:48:32.404Z,21.70
2022-09-03T18:50:37.184Z,21.60
2022-09-03T18:52:37.180Z,21.50
2022-09-03T18:55:07.227Z,21.50
2022-09-03T18:57:03.759Z,21.50
2022-09-03T18:59:14.439Z,21.40
2022-09-03T19:01:20.737Z,21.30
2022-09-03T19:03:52.363Z,21.30
2022-09-03T19:05:53.652Z,21.20
2022-09-03T19:07:59.945Z,21.20
2022-09-03T19:10:12.548Z,21.20
2022-09-03T19:12:31.345Z,21.10
2022-09-03T19:14:37.553Z,21.00
2022-09-03T19:16:35.577Z,21.00
2022-09-03T19:18:45.302Z,20.90
2022-09-03T19:20:45.171Z,20.90
2022-09-03T19:22:47.799Z,20.90
2022-09-03T19:24:47.187Z,20.80
2022-09-03T19:26:52.610Z,20.70
2022-09-03T19:29:00.857Z,20.70
2022-09-03T19:31:14.545Z,20.60
2022-09-03T19:33:22.294Z,20.50
2022-09-03T19:35:33.014Z,20.50
2022-09-03T19:37:36.911Z,20.40
2022-09-03T19:39:53.486Z,20.30
2022-09-03T19:41:53.447Z,20.30
2022-09-03T19:43:54.819Z,20.20
2022-09-03T19:46:05.475Z,20.10
2022-09-03T19:48:13.725Z,20.00
2022-09-03T19:50:21.763Z,19.90
2022-09-03T19:52:25.119Z,19.90
2022-09-03T19:54:22.345Z,19.80
2022-09-03T19:56:15.942Z,19.70
2022-09-03T19:58:39.168Z,19.70
2022-09-03T20:00:36.535Z,19.60
2022-09-03T20:02:30.181Z,19.60
2022-09-03T20:04:31.866Z,19.50
2022-09-03T20:06:26.030Z,19.40
2022-09-03T20:08:19.335Z,19.30
2022-09-03T20:10:12.192Z,19.30
2022-09-03T20:11:48.951Z,19.20
2022-09-03T20:13:22.523Z,19.10
2022-09-03T20:14:55.143Z,19.10
2022-09-03T20:16:37.031Z,19.10
2022-09-03T20:18:24.504Z,19.00
2022-09-03T20:20:15.219Z,19.00
2022-09-03T20:21:56.343Z,18.90
2022-09-03T20:23:37.342Z,18.90
2022-09-03T20:25:30.330Z,18.90
2022-09-03T20:27:19.111Z,18.80
2022-09-03T20:29:20.543Z,18.80
2022-09-03T20:31:03.895Z,18.70
2022-09-03T20:33:16.255Z,18.70
2022-09-03T20:35:09.204Z,18.60
2022-09-03T20:36:56.515Z,18.60
2022-09-03T20:39:20.387Z,18.50
2022-09-03T20:41:11.946Z,18.50
2022-09-03T20:43:29.347Z,18.40
2022-09-03T20:45:10.851Z,18.30
2022-09-03T20:47:04.539Z,18.30
2022-09-03T20:48:54.381Z,18.20
2022-09-03T20:50:53.225Z,18.20
2022-09-03T20:52:45.682Z,18.10
2022-09-03T20:54:31.897Z,18.10
2022-09-03T20:56:16.662Z,18.00
2022-09-03T20:58:03.052Z,18.00
2022-09-03T20:59:59.335Z,18.00
2022-09-03T21:01:48.177Z,17.90
2022-09-03T21:03:31.367Z,17.80
2022-09-03T21:05:18.850Z,17.80
2022-09-03T21:07:02.619Z,17.80
2022-09-03T21:09:02.636Z,17.70
2022-09-03T21:10:49.054Z,17.70
2022-09-03T21:12:38.215Z,17.60
2022-09-03T21:14:32.143Z,17.50
2022-09-03T21:16:22.825Z,17.50
2022-09-03T21:18:07.823Z,17.50
2022-09-03T21:20:00.677Z,17.40
2022-09-03T21:21:53.300Z,17.40
2022-09-03T21:23:34.833Z,17.30
2022-09-03T21:25:15.807Z,17.30
2022-09-03T21:26:57.049Z,17.30
2022-09-03T21:28:40.272Z,17.20
2022-09-03T21:30:18.239Z,17.20
2022-09-03T21:31:59.537Z,17.10
2022-09-03T21:33:39.840Z,17.10
2022-09-03T21:35:24.504Z,17.00
2022-09-03T21:37:02.023Z,17.00
2022-09-03T21:38:39.506Z,17.00
2022-09-03T21:40:18.943Z,16.90
2022-09-03T21:42:07.984Z,16.90
2022-09-03T21:43:51.597Z,16.80
2022-09-03T21:45:33.020Z,16.80
2022-09-03T21:47:12.598Z,16.80
2022-09-03T21:48:53.798Z,16.70
2022-09-03T21:50:40.948Z,16.70
2022-09-03T21:52:23.208Z,16.70
2022-09-03T21:54:04.098Z,16.60
2022-09-03T21:55:56.960Z,16.60
2022-09-03T21:57:39.441Z,16.60
2022-09-03T21:59:32.168Z,16.50
2022-09-03T22:01:13.046Z,16.50
2022-09-03T22:02:48.035Z,16.50
2022-09-03T22:04:20.918Z,16.40
2022-09-03T22:06:04.090Z,16.40
2022-09-03T22:08:09.091Z,16.30
2022-09-03T22:09:51.611Z,16.30
2022-09-03T22:11:40.064Z,16.30
2022-09-03T22:13:26.516Z,16.20
2022-09-03T22:15:02.360Z,16.20
2022-09-03T22:16:44.350Z,16.20
2022-09-03T22:18:29.146Z,16.20
2022-09-03T22:20:14.583Z,16.20
2022-09-03T22:21:59.779Z,16.20
2022-09-03T22:24:04.068Z,16.10
2022-09-03T22:25:49.344Z,16.10
2022-09-03T22:27:35.460Z,16.10
2022-09-03T22:29:25.970Z,16.00
2022-09-03T22:31:13.981Z,16.00
2022-09-03T22:33:07.419Z,15.90
2022-09-03T22:35:03.876Z,15.90
2022-09-03T22:36:42.613Z,15.90